sensor_id;sensor_type;location;lat;lon;timestamp;pressure;altitude;pressure_sealevel;temperature;humidity
64886;BME280;51514;52.206;5.114;2023-09-30T00:02:11;102512.19;;;21.79;66.14
64886;BME280;51514;52.206;5.114;2023-09-30T00:04:36;102510.31;;;21.79;66.13
64886;BME280;51514;52.206;5.114;2023-09-30T00:07:01;102512.19;;;21.79;66.14
64886;BME280;51514;52.206;5.114;2023-09-30T00:09:27;102514.28;;;21.77;65.97
64886;BME280;51514;52.206;5.114;2023-09-30T00:11:52;102510.00;;;21.74;66.18
64886;BME280;51514;52.206;5.114;2023-09-30T00:14:20;102516.19;;;21.76;66.17
64886;BME280;51514;52.206;5.114;2023-09-30T00:16:45;102512.97;;;21.73;66.36
64886;BME280;51514;52.206;5.114;2023-09-30T00:19:10;102522.94;;;21.74;65.96
64886;BME280;51514;52.206;5.114;2023-09-30T00:21:36;102514.03;;;21.72;66.05
64886;BME280;51514;52.206;5.114;2023-09-30T00:24:01;102512.31;;;21.71;66.31
64886;BME280;51514;52.206;5.114;2023-09-30T00:26:26;102515.25;;;21.69;66.26
64886;BME280;51514;52.206;5.114;2023-09-30T00:28:52;102521.59;;;21.70;66.16
64886;BME280;51514;52.206;5.114;2023-09-30T00:31:18;102523.47;;;21.69;65.88
64886;BME280;51514;52.206;5.114;2023-09-30T00:33:43;102531.91;;;21.68;65.87
64886;BME280;51514;52.206;5.114;2023-09-30T00:36:09;102529.16;;;21.68;65.95
64886;BME280;51514;52.206;5.114;2023-09-30T00:38:36;102532.94;;;21.67;65.96
64886;BME280;51514;52.206;5.114;2023-09-30T00:41:02;102536.72;;;21.66;65.97
64886;BME280;51514;52.206;5.114;2023-09-30T00:43:27;102536.06;;;21.64;66.06
64886;BME280;51514;52.206;5.114;2023-09-30T00:46:10;102553.78;;;21.61;66.22
64886;BME280;51514;52.206;5.114;2023-09-30T00:48:42;102553.97;;;21.60;66.05
64886;BME280;51514;52.206;5.114;2023-09-30T00:51:08;102554.84;;;21.60;66.03
64886;BME280;51514;52.206;5.114;2023-09-30T00:53:33;102544.88;;;21.59;66.40
64886;BME280;51514;52.206;5.114;2023-09-30T00:56:00;102542.34;;;21.58;66.02
64886;BME280;51514;52.206;5.114;2023-09-30T00:58:25;102545.06;;;21.58;66.02
64886;BME280;51514;52.206;5.114;2023-09-30T01:00:56;102543.56;;;21.55;66.16
64886;BME280;51514;52.206;5.114;2023-09-30T01:03:24;102550.75;;;21.56;66.13
64886;BME280;51514;52.206;5.114;2023-09-30T01:05:49;102557.28;;;21.55;66.11
64886;BME280;51514;52.206;5.114;2023-09-30T01:08:16;102561.06;;;21.54;66.07
64886;BME280;51514;52.206;5.114;2023-09-30T01:10:43;102559.34;;;21.53;66.03
64886;BME280;51514;52.206;5.114;2023-09-30T01:13:08;102562.97;;;21.54;66.06
64886;BME280;51514;52.206;5.114;2023-09-30T01:15:33;102557.69;;;21.52;66.34
64886;BME280;51514;52.206;5.114;2023-09-30T01:17:59;102558.50;;;21.53;65.79
64886;BME280;51514;52.206;5.114;2023-09-30T01:20:25;102563.34;;;21.51;65.91
64886;BME280;51514;52.206;5.114;2023-09-30T01:22:50;102569.03;;;21.49;66.30
64886;BME280;51514;52.206;5.114;2023-09-30T01:25:15;102574.53;;;21.49;66.26
64886;BME280;51514;52.206;5.114;2023-09-30T01:27:41;102572.81;;;21.48;65.94
64886;BME280;51514;52.206;5.114;2023-09-30T01:30:06;102570.25;;;21.46;66.03
64886;BME280;51514;52.206;5.114;2023-09-30T01:32:36;102573.00;;;21.46;66.37
64886;BME280;51514;52.206;5.114;2023-09-30T01:35:02;102576.78;;;21.45;65.99
64886;BME280;51514;52.206;5.114;2023-09-30T01:37:27;102567.88;;;21.43;66.16
64886;BME280;51514;52.206;5.114;2023-09-30T01:39:55;102563.44;;;21.42;66.25
64886;BME280;51514;52.206;5.114;2023-09-30T01:42:21;102566.16;;;21.42;65.98
64886;BME280;51514;52.206;5.114;2023-09-30T01:44:46;102567.25;;;21.41;66.05
64886;BME280;51514;52.206;5.114;2023-09-30T01:47:12;102570.16;;;21.40;66.17
64886;BME280;51514;52.206;5.114;2023-09-30T01:49:37;102571.03;;;21.40;66.35
64886;BME280;51514;52.206;5.114;2023-09-30T01:52:03;102558.34;;;21.39;65.85
64886;BME280;51514;52.206;5.114;2023-09-30T01:54:28;102552.19;;;21.37;66.23
64886;BME280;51514;52.206;5.114;2023-09-30T01:56:54;102542.25;;;21.36;66.05
64886;BME280;51514;52.206;5.114;2023-09-30T01:59:19;102544.97;;;21.36;65.99
64886;BME280;51514;52.206;5.114;2023-09-30T02:01:44;102546.88;;;21.36;66.43
64886;BME280;51514;52.206;5.114;2023-09-30T02:04:11;102550.66;;;21.35;66.15
64886;BME280;51514;52.206;5.114;2023-09-30T02:06:40;102552.72;;;21.33;66.19
64886;BME280;51514;52.206;5.114;2023-09-30T02:09:05;102564.56;;;21.33;66.29
64886;BME280;51514;52.206;5.114;2023-09-30T02:11:33;102557.38;;;21.32;65.84
64886;BME280;51514;52.206;5.114;2023-09-30T02:13:59;102553.75;;;21.32;66.06
64886;BME280;51514;52.206;5.114;2023-09-30T02:16:24;102556.50;;;21.32;66.26
64886;BME280;51514;52.206;5.114;2023-09-30T02:18:50;102559.47;;;21.30;65.88
64886;BME280;51514;52.206;5.114;2023-09-30T02:21:15;102549.72;;;21.28;65.92
64886;BME280;51514;52.206;5.114;2023-09-30T02:23:41;102560.69;;;21.28;65.81
64886;BME280;51514;52.206;5.114;2023-09-30T02:26:06;102562.59;;;21.27;66.07
64886;BME280;51514;52.206;5.114;2023-09-30T02:28:32;102552.63;;;21.26;66.16
64886;BME280;51514;52.206;5.114;2023-09-30T02:31:00;102557.28;;;21.26;66.07
64886;BME280;51514;52.206;5.114;2023-09-30T02:33:25;102548.19;;;21.25;66.11
64886;BME280;51514;52.206;5.114;2023-09-30T02:35:51;102549.22;;;21.24;66.05
64886;BME280;51514;52.206;5.114;2023-09-30T02:38:16;102551.31;;;21.22;66.18
64886;BME280;51514;52.206;5.114;2023-09-30T02:40:44;102559.53;;;21.22;66.07
64886;BME280;51514;52.206;5.114;2023-09-30T02:43:12;102556.78;;;21.22;65.87
64886;BME280;51514;52.206;5.114;2023-09-30T02:45:37;102550.44;;;21.22;65.93
64886;BME280;51514;52.206;5.114;2023-09-30T02:48:03;102543.25;;;21.21;65.90
64886;BME280;51514;52.206;5.114;2023-09-30T02:50:28;102540.50;;;21.21;66.15
64886;BME280;51514;52.206;5.114;2023-09-30T02:52:53;102537.97;;;21.19;65.87
64886;BME280;51514;52.206;5.114;2023-09-30T02:55:19;102551.69;;;21.19;65.97
64886;BME280;51514;52.206;5.114;2023-09-30T02:57:44;102552.72;;;21.18;65.96
64886;BME280;51514;52.206;5.114;2023-09-30T03:00:12;102547.41;;;21.17;65.83
64886;BME280;51514;52.206;5.114;2023-09-30T03:02:51;102541.06;;;21.16;66.01
64886;BME280;51514;52.206;5.114;2023-09-30T03:05:18;102536.59;;;21.15;65.91
64886;BME280;51514;52.206;5.114;2023-09-30T03:07:44;102544.84;;;21.15;66.00
64886;BME280;51514;52.206;5.114;2023-09-30T03:10:10;102548.63;;;21.14;65.86
64886;BME280;51514;52.206;5.114;2023-09-30T03:12:37;102546.91;;;21.13;65.92
64886;BME280;51514;52.206;5.114;2023-09-30T03:15:04;102553.25;;;21.13;66.02
64886;BME280;51514;52.206;5.114;2023-09-30T03:17:30;102549.66;;;21.13;65.90
64886;BME280;51514;52.206;5.114;2023-09-30T03:19:57;102546.91;;;21.13;65.91
64886;BME280;51514;52.206;5.114;2023-09-30T03:22:23;102548.97;;;21.11;65.77
64886;BME280;51514;52.206;5.114;2023-09-30T03:24:48;102539.03;;;21.10;66.00
64886;BME280;51514;52.206;5.114;2023-09-30T03:27:13;102537.38;;;21.09;66.17
64886;BME280;51514;52.206;5.114;2023-09-30T03:29:44;102531.22;;;21.07;65.88
64886;BME280;51514;52.206;5.114;2023-09-30T03:32:09;102544.97;;;20.99;66.04
64886;BME280;51514;52.206;5.114;2023-09-30T03:34:35;102541.50;;;21.05;66.04
64886;BME280;51514;52.206;5.114;2023-09-30T03:37:01;102541.50;;;21.05;66.02
64886;BME280;51514;52.206;5.114;2023-09-30T03:39:27;102539.63;;;21.05;65.84
64886;BME280;51514;52.206;5.114;2023-09-30T03:41:55;102538.94;;;21.03;66.07
64886;BME280;51514;52.206;5.114;2023-09-30T03:44:24;102542.53;;;21.04;65.99
64886;BME280;51514;52.206;5.114;2023-09-30T03:46:51;102548.03;;;21.04;66.15
64886;BME280;51514;52.206;5.114;2023-09-30T03:49:17;102541.69;;;21.03;65.92
64886;BME280;51514;52.206;5.114;2023-09-30T03:51:45;102542.72;;;21.02;65.91
64886;BME280;51514;52.206;5.114;2023-09-30T03:54:10;102539.97;;;21.02;65.89
64886;BME280;51514;52.206;5.114;2023-09-30T03:56:36;102536.38;;;21.02;66.02
64886;BME280;51514;52.206;5.114;2023-09-30T03:59:03;102540.16;;;21.01;66.00
64886;BME280;51514;52.206;5.114;2023-09-30T04:01:29;102537.44;;;21.01;65.92
64886;BME280;51514;52.206;5.114;2023-09-30T04:03:54;102535.72;;;21.00;66.15
64886;BME280;51514;52.206;5.114;2023-09-30T04:06:20;102550.28;;;21.00;66.10
64886;BME280;51514;52.206;5.114;2023-09-30T04:08:46;102541.19;;;21.00;65.88
64886;BME280;51514;52.206;5.114;2023-09-30T04:11:12;102545.84;;;20.99;66.26
64886;BME280;51514;52.206;5.114;2023-09-30T04:13:43;102542.44;;;20.97;65.82
64886;BME280;51514;52.206;5.114;2023-09-30T04:16:09;102543.31;;;20.98;65.97
64886;BME280;51514;52.206;5.114;2023-09-30T04:18:34;102545.19;;;20.97;66.11
64886;BME280;51514;52.206;5.114;2023-09-30T04:21:00;102531.66;;;20.96;65.76
64886;BME280;51514;52.206;5.114;2023-09-30T04:23:25;102541.59;;;20.97;65.98
64886;BME280;51514;52.206;5.114;2023-09-30T04:25:50;102551.72;;;20.96;65.76
64886;BME280;51514;52.206;5.114;2023-09-30T04:28:16;102554.63;;;20.95;65.87
64886;BME280;51514;52.206;5.114;2023-09-30T04:30:46;102561.84;;;20.96;65.99
64886;BME280;51514;52.206;5.114;2023-09-30T04:33:12;102560.13;;;20.95;65.97
64886;BME280;51514;52.206;5.114;2023-09-30T04:35:39;102552.06;;;20.93;65.77
64886;BME280;51514;52.206;5.114;2023-09-30T04:38:04;102560.31;;;20.93;65.89
64886;BME280;51514;52.206;5.114;2023-09-30T04:40:30;102568.53;;;20.93;66.12
64886;BME280;51514;52.206;5.114;2023-09-30T04:42:55;102559.63;;;20.91;65.94
64886;BME280;51514;52.206;5.114;2023-09-30T04:45:24;102557.75;;;20.92;66.00
64886;BME280;51514;52.206;5.114;2023-09-30T04:47:54;102560.66;;;20.90;65.93
64886;BME280;51514;52.206;5.114;2023-09-30T04:50:21;102562.56;;;20.90;65.92
64886;BME280;51514;52.206;5.114;2023-09-30T04:52:53;102578.16;;;20.89;65.99
64886;BME280;51514;52.206;5.114;2023-09-30T04:55:19;102580.91;;;20.89;65.77
64886;BME280;51514;52.206;5.114;2023-09-30T04:57:48;102581.94;;;20.88;65.84
64886;BME280;51514;52.206;5.114;2023-09-30T05:00:18;102569.47;;;20.86;65.91
64886;BME280;51514;52.206;5.114;2023-09-30T05:02:44;102573.91;;;20.87;65.88
64886;BME280;51514;52.206;5.114;2023-09-30T05:05:10;102573.06;;;20.86;65.80
64886;BME280;51514;52.206;5.114;2023-09-30T05:07:36;102575.97;;;20.85;66.06
64886;BME280;51514;52.206;5.114;2023-09-30T05:10:04;102584.22;;;20.85;66.04
64886;BME280;51514;52.206;5.114;2023-09-30T05:12:31;102575.97;;;20.85;65.79
64886;BME280;51514;52.206;5.114;2023-09-30T05:14:58;102568.78;;;20.84;65.90
64886;BME280;51514;52.206;5.114;2023-09-30T05:17:23;102568.78;;;20.84;66.03
64886;BME280;51514;52.206;5.114;2023-09-30T05:19:49;102557.81;;;20.84;66.00
64886;BME280;51514;52.206;5.114;2023-09-30T05:22:14;102572.56;;;20.83;65.77
64886;BME280;51514;52.206;5.114;2023-09-30T05:24:40;102567.25;;;20.81;65.85
64886;BME280;51514;52.206;5.114;2023-09-30T05:27:05;102569.16;;;20.81;65.96
64886;BME280;51514;52.206;5.114;2023-09-30T05:29:31;102573.78;;;20.80;66.00
64886;BME280;51514;52.206;5.114;2023-09-30T05:31:58;102578.41;;;20.80;66.02
64886;BME280;51514;52.206;5.114;2023-09-30T05:34:24;102574.81;;;20.79;65.91
64886;BME280;51514;52.206;5.114;2023-09-30T05:36:49;102575.00;;;20.77;65.99
64886;BME280;51514;52.206;5.114;2023-09-30T05:39:16;102574.13;;;20.77;66.09
64886;BME280;51514;52.206;5.114;2023-09-30T05:41:45;102575.19;;;20.76;65.84
64886;BME280;51514;52.206;5.114;2023-09-30T05:44:12;102569.91;;;20.74;65.71
64886;BME280;51514;52.206;5.114;2023-09-30T05:46:39;102575.38;;;20.74;65.97
64886;BME280;51514;52.206;5.114;2023-09-30T05:49:04;102577.28;;;20.74;65.97
64886;BME280;51514;52.206;5.114;2023-09-30T05:51:35;102579.16;;;20.73;65.75
64886;BME280;51514;52.206;5.114;2023-09-30T05:54:00;102588.41;;;20.72;65.83
64886;BME280;51514;52.206;5.114;2023-09-30T05:56:25;102583.78;;;20.73;65.79
64886;BME280;51514;52.206;5.114;2023-09-30T05:58:52;102584.81;;;20.72;65.90
64886;BME280;51514;52.206;5.114;2023-09-30T06:01:17;102586.72;;;20.71;65.86
64886;BME280;51514;52.206;5.114;2023-09-30T06:03:45;102590.47;;;20.70;66.00
64886;BME280;51514;52.206;5.114;2023-09-30T06:06:15;102593.41;;;20.69;65.95
64886;BME280;51514;52.206;5.114;2023-09-30T06:08:43;102593.66;;;20.59;66.00
64886;BME280;51514;52.206;5.114;2023-09-30T06:11:19;102596.72;;;20.64;65.89
64886;BME280;51514;52.206;5.114;2023-09-30T06:13:45;102591.69;;;20.68;66.07
64886;BME280;51514;52.206;5.114;2023-09-30T06:16:12;102572.50;;;20.68;66.03
64886;BME280;51514;52.206;5.114;2023-09-30T06:18:37;102575.25;;;20.68;65.98
64886;BME280;51514;52.206;5.114;2023-09-30T06:21:03;102592.53;;;20.68;65.66
64886;BME280;51514;52.206;5.114;2023-09-30T06:23:30;102592.53;;;20.68;65.89
64886;BME280;51514;52.206;5.114;2023-09-30T06:25:56;102594.25;;;20.69;65.72
64886;BME280;51514;52.206;5.114;2023-09-30T06:28:21;102596.13;;;20.69;65.76
64886;BME280;51514;52.206;5.114;2023-09-30T06:30:52;102600.59;;;20.70;65.51
64886;BME280;51514;52.206;5.114;2023-09-30T06:33:17;102604.19;;;20.70;65.32
64886;BME280;51514;52.206;5.114;2023-09-30T06:35:43;102612.41;;;20.70;65.46
64886;BME280;51514;52.206;5.114;2023-09-30T06:38:16;102616.88;;;20.71;65.42
64886;BME280;51514;52.206;5.114;2023-09-30T06:40:43;102616.88;;;20.71;65.26
64886;BME280;51514;52.206;5.114;2023-09-30T06:43:08;102620.47;;;20.72;65.37
64886;BME280;51514;52.206;5.114;2023-09-30T06:45:33;102618.56;;;20.72;64.96
64886;BME280;51514;52.206;5.114;2023-09-30T06:47:59;102627.81;;;20.71;65.05
64886;BME280;51514;52.206;5.114;2023-09-30T06:50:24;102628.69;;;20.72;65.10
64886;BME280;51514;52.206;5.114;2023-09-30T06:52:49;102624.22;;;20.71;64.90
64886;BME280;51514;52.206;5.114;2023-09-30T06:55:15;102636.91;;;20.72;65.01
64886;BME280;51514;52.206;5.114;2023-09-30T06:57:42;102640.50;;;20.72;65.10
64886;BME280;51514;52.206;5.114;2023-09-30T07:00:12;102647.03;;;20.71;64.95
64886;BME280;51514;52.206;5.114;2023-09-30T07:02:38;102648.72;;;20.72;64.88
64886;BME280;51514;52.206;5.114;2023-09-30T07:05:09;102642.38;;;20.72;64.99
64886;BME280;51514;52.206;5.114;2023-09-30T07:07:34;102654.88;;;20.74;65.09
64886;BME280;51514;52.206;5.114;2023-09-30T07:10:00;102656.78;;;20.74;65.11
64886;BME280;51514;52.206;5.114;2023-09-30T07:12:26;102663.13;;;20.74;65.01
64886;BME280;51514;52.206;5.114;2023-09-30T07:14:51;102663.13;;;20.74;65.09
64886;BME280;51514;52.206;5.114;2023-09-30T07:17:16;102663.97;;;20.75;65.16
64886;BME280;51514;52.206;5.114;2023-09-30T07:19:42;102663.78;;;20.76;65.40
64886;BME280;51514;52.206;5.114;2023-09-30T07:22:08;102667.34;;;20.77;65.14
64886;BME280;51514;52.206;5.114;2023-09-30T07:24:33;102673.69;;;20.77;65.46
64886;BME280;51514;52.206;5.114;2023-09-30T07:26:59;102658.09;;;20.78;65.11
64886;BME280;51514;52.206;5.114;2023-09-30T07:29:24;102666.16;;;20.80;65.16
64886;BME280;51514;52.206;5.114;2023-09-30T07:31:49;102669.56;;;20.82;65.23
64886;BME280;51514;52.206;5.114;2023-09-30T07:34:16;102671.28;;;20.83;65.04
64886;BME280;51514;52.206;5.114;2023-09-30T07:36:41;102663.72;;;20.85;64.99
64886;BME280;51514;52.206;5.114;2023-09-30T07:39:06;102666.09;;;20.88;65.13
64886;BME280;51514;52.206;5.114;2023-09-30T07:41:35;102680.28;;;20.91;64.87
64886;BME280;51514;52.206;5.114;2023-09-30T07:44:02;102688.00;;;20.96;65.04
64886;BME280;51514;52.206;5.114;2023-09-30T07:46:28;102691.41;;;20.98;64.93
64886;BME280;51514;52.206;5.114;2023-09-30T07:48:53;102692.91;;;21.00;64.94
64886;BME280;51514;52.206;5.114;2023-09-30T07:51:20;102695.47;;;21.02;64.68
64886;BME280;51514;52.206;5.114;2023-09-30T07:53:46;102694.44;;;21.03;64.76
64886;BME280;51514;52.206;5.114;2023-09-30T07:56:11;102683.47;;;21.03;64.59
64886;BME280;51514;52.206;5.114;2023-09-30T07:58:36;102680.03;;;21.01;64.72
64886;BME280;51514;52.206;5.114;2023-09-30T08:01:02;102680.03;;;21.01;64.84
64886;BME280;51514;52.206;5.114;2023-09-30T08:03:27;102665.66;;;20.99;64.85
64886;BME280;51514;52.206;5.114;2023-09-30T08:05:53;102677.47;;;20.99;64.79
64886;BME280;51514;52.206;5.114;2023-09-30T08:08:18;102665.00;;;20.97;64.87
64886;BME280;51514;52.206;5.114;2023-09-30T08:10:44;102667.75;;;20.97;64.82
64886;BME280;51514;52.206;5.114;2023-09-30T08:13:09;102660.56;;;20.96;64.96
64886;BME280;51514;52.206;5.114;2023-09-30T08:15:35;102648.75;;;20.95;65.03
64886;BME280;51514;52.206;5.114;2023-09-30T08:18:00;102654.22;;;20.95;64.76
64886;BME280;51514;52.206;5.114;2023-09-30T08:20:28;102647.03;;;20.94;64.79
64886;BME280;51514;52.206;5.114;2023-09-30T08:22:53;102652.50;;;20.94;64.81
64886;BME280;51514;52.206;5.114;2023-09-30T08:25:19;102653.38;;;20.95;64.94
64886;BME280;51514;52.206;5.114;2023-09-30T08:27:44;102664.34;;;20.95;64.74
64886;BME280;51514;52.206;5.114;2023-09-30T08:30:14;102664.34;;;20.95;65.04
64886;BME280;51514;52.206;5.114;2023-09-30T08:32:40;102664.34;;;20.95;64.85
64886;BME280;51514;52.206;5.114;2023-09-30T08:35:05;102667.09;;;20.95;64.93
64886;BME280;51514;52.206;5.114;2023-09-30T08:37:32;102666.03;;;20.96;64.75
64886;BME280;51514;52.206;5.114;2023-09-30T08:39:58;102677.69;;;20.98;64.96
64886;BME280;51514;52.206;5.114;2023-09-30T08:42:23;102684.69;;;21.00;64.98
64886;BME280;51514;52.206;5.114;2023-09-30T08:44:54;102678.34;;;21.00;64.93
64886;BME280;51514;52.206;5.114;2023-09-30T08:47:20;102676.44;;;21.00;64.60
64886;BME280;51514;52.206;5.114;2023-09-30T08:49:48;102670.78;;;21.02;64.76
64886;BME280;51514;52.206;5.114;2023-09-30T08:52:16;102673.53;;;21.02;64.97
64886;BME280;51514;52.206;5.114;2023-09-30T08:54:42;102679.00;;;21.02;64.85
64886;BME280;51514;52.206;5.114;2023-09-30T08:57:09;102682.78;;;21.01;65.19
64886;BME280;51514;52.206;5.114;2023-09-30T08:59:35;102675.25;;;21.03;65.21
64886;BME280;51514;52.206;5.114;2023-09-30T09:02:08;102683.47;;;21.03;65.46
64886;BME280;51514;52.206;5.114;2023-09-30T09:04:33;102682.06;;;21.07;65.61
64886;BME280;51514;52.206;5.114;2023-09-30T09:06:59;102690.59;;;21.12;65.47
64886;BME280;51514;52.206;5.114;2023-09-30T09:09:24;102696.41;;;21.17;65.70
64886;BME280;51514;52.206;5.114;2023-09-30T09:11:50;102701.84;;;21.25;65.70
64886;BME280;51514;52.206;5.114;2023-09-30T09:14:16;102712.38;;;21.36;65.66
64886;BME280;51514;52.206;5.114;2023-09-30T09:16:52;102721.91;;;21.48;65.84
64886;BME280;51514;52.206;5.114;2023-09-30T09:19:18;102720.69;;;21.66;65.45
64886;BME280;51514;52.206;5.114;2023-09-30T09:21:58;102721.00;;;21.85;65.58
64886;BME280;51514;52.206;5.114;2023-09-30T09:24:31;102724.09;;;22.05;65.02
64886;BME280;51514;52.206;5.114;2023-09-30T09:27:07;102726.47;;;22.23;64.92
64886;BME280;51514;52.206;5.114;2023-09-30T09:29:34;102732.59;;;22.40;64.92
64886;BME280;51514;52.206;5.114;2023-09-30T09:32:13;102725.19;;;22.55;64.29
64886;BME280;51514;52.206;5.114;2023-09-30T09:34:39;102724.72;;;22.66;64.39
64886;BME280;51514;52.206;5.114;2023-09-30T09:39:57;102727.72;;;22.86;63.82
64886;BME280;51514;52.206;5.114;2023-09-30T09:42:31;102731.19;;;22.94;64.03
64886;BME280;51514;52.206;5.114;2023-09-30T09:44:59;102733.00;;;23.02;63.76
64886;BME280;51514;52.206;5.114;2023-09-30T09:47:25;102734.75;;;23.10;63.76
64886;BME280;51514;52.206;5.114;2023-09-30T09:49:51;102732.72;;;23.18;63.28
64886;BME280;51514;52.206;5.114;2023-09-30T09:52:18;102730.69;;;23.27;63.52
64886;BME280;51514;52.206;5.114;2023-09-30T09:54:45;102732.91;;;23.38;62.98
64886;BME280;51514;52.206;5.114;2023-09-30T09:57:11;102730.06;;;23.46;62.98
64886;BME280;51514;52.206;5.114;2023-09-30T09:59:38;102739.06;;;23.55;62.64
64886;BME280;51514;52.206;5.114;2023-09-30T10:02:10;102739.28;;;23.60;62.74
64886;BME280;51514;52.206;5.114;2023-09-30T10:04:36;102732.34;;;23.64;62.49
64886;BME280;51514;52.206;5.114;2023-09-30T10:07:03;102731.09;;;23.67;62.56
64886;BME280;51514;52.206;5.114;2023-09-30T10:09:32;102724.13;;;23.71;62.38
64886;BME280;51514;52.206;5.114;2023-09-30T10:12:00;102719.94;;;23.75;62.43
64886;BME280;51514;52.206;5.114;2023-09-30T10:14:31;102715.28;;;23.75;62.23
64886;BME280;51514;52.206;5.114;2023-09-30T10:17:01;102711.47;;;23.76;62.40
64886;BME280;51514;52.206;5.114;2023-09-30T10:19:26;102706.81;;;23.77;62.21
64886;BME280;51514;52.206;5.114;2023-09-30T10:24:45;102708.72;;;23.76;62.37
64886;BME280;51514;52.206;5.114;2023-09-30T10:40:53;102711.44;;;24.04;61.45
64886;BME280;51514;52.206;5.114;2023-09-30T10:43:35;102700.41;;;24.04;61.96
64886;BME280;51514;52.206;5.114;2023-09-30T10:46:01;102702.16;;;24.12;61.85
64886;BME280;51514;52.206;5.114;2023-09-30T10:50:53;102690.97;;;24.20;61.93
64886;BME280;51514;52.206;5.114;2023-09-30T10:53:20;102693.31;;;24.23;62.09
64886;BME280;51514;52.206;5.114;2023-09-30T10:55:46;102693.13;;;24.24;62.17
64886;BME280;51514;52.206;5.114;2023-09-30T10:58:15;102696.72;;;24.25;62.10
64886;BME280;51514;52.206;5.114;2023-09-30T11:00:52;102687.00;;;24.22;62.37
64886;BME280;51514;52.206;5.114;2023-09-30T11:03:19;102681.47;;;24.22;62.38
64886;BME280;51514;52.206;5.114;2023-09-30T11:05:50;102690.97;;;24.20;62.53
64886;BME280;51514;52.206;5.114;2023-09-30T11:08:21;102703.03;;;24.19;62.46
64886;BME280;51514;52.206;5.114;2023-09-30T11:10:50;102686.06;;;24.15;62.58
64886;BME280;51514;52.206;5.114;2023-09-30T11:13:19;102693.66;;;24.13;62.73
64886;BME280;51514;52.206;5.114;2023-09-30T11:15:45;102691.16;;;24.12;62.84
64886;BME280;51514;52.206;5.114;2023-09-30T11:18:17;102688.34;;;24.05;61.32
64886;BME280;51514;52.206;5.114;2023-09-30T11:20:44;102692.75;;;23.99;59.43
64886;BME280;51514;52.206;5.114;2023-09-30T11:23:10;102681.28;;;23.96;59.60
64886;BME280;51514;52.206;5.114;2023-09-30T11:25:37;102688.03;;;23.93;61.02
64886;BME280;51514;52.206;5.114;2023-09-30T11:28:17;102683.16;;;23.89;60.74
64886;BME280;51514;52.206;5.114;2023-09-30T11:30:58;102679.56;;;23.88;61.09
64886;BME280;51514;52.206;5.114;2023-09-30T11:33:24;102672.75;;;23.91;61.26
64886;BME280;51514;52.206;5.114;2023-09-30T11:36:15;102672.94;;;23.83;60.31
64886;BME280;51514;52.206;5.114;2023-09-30T11:38:45;102681.84;;;23.85;60.84
64886;BME280;51514;52.206;5.114;2023-09-30T11:41:14;102682.44;;;23.80;61.03
64886;BME280;51514;52.206;5.114;2023-09-30T11:44:18;102691.72;;;23.73;61.07
64886;BME280;51514;52.206;5.114;2023-09-30T11:47:00;102686.59;;;23.70;60.97
64886;BME280;51514;52.206;5.114;2023-09-30T11:52:02;102693.38;;;23.67;61.45
64886;BME280;51514;52.206;5.114;2023-09-30T11:54:36;102684.47;;;23.65;61.31
64886;BME280;51514;52.206;5.114;2023-09-30T11:57:14;102689.13;;;23.64;61.38
64886;BME280;51514;52.206;5.114;2023-09-30T11:59:44;102686.56;;;23.63;61.49
64886;BME280;51514;52.206;5.114;2023-09-30T12:02:11;102676.78;;;23.60;61.41
64886;BME280;51514;52.206;5.114;2023-09-30T12:04:37;102665.13;;;23.58;61.58
64886;BME280;51514;52.206;5.114;2023-09-30T12:07:03;102670.00;;;23.56;61.31
64886;BME280;51514;52.206;5.114;2023-09-30T12:09:29;102654.53;;;23.55;61.57
64886;BME280;51514;52.206;5.114;2023-09-30T12:11:56;102660.22;;;23.54;61.56
64886;BME280;51514;52.206;5.114;2023-09-30T12:14:23;102663.19;;;23.52;61.48
64886;BME280;51514;52.206;5.114;2023-09-30T12:16:49;102659.78;;;23.50;61.74
64886;BME280;51514;52.206;5.114;2023-09-30T12:19:16;102648.75;;;23.50;61.88
64886;BME280;51514;52.206;5.114;2023-09-30T12:21:44;102653.56;;;23.48;61.68
64886;BME280;51514;52.206;5.114;2023-09-30T12:24:12;102653.81;;;23.47;61.95
64886;BME280;51514;52.206;5.114;2023-09-30T12:26:44;102651.25;;;23.45;61.77
64886;BME280;51514;52.206;5.114;2023-09-30T12:29:17;102654.19;;;23.44;61.83
64886;BME280;51514;52.206;5.114;2023-09-30T12:31:43;102648.88;;;23.42;61.98
64886;BME280;51514;52.206;5.114;2023-09-30T12:34:09;102648.88;;;23.42;61.74
64886;BME280;51514;52.206;5.114;2023-09-30T12:36:34;102643.09;;;23.37;61.63
64886;BME280;51514;52.206;5.114;2023-09-30T12:38:59;102647.75;;;23.37;61.52
64886;BME280;51514;52.206;5.114;2023-09-30T12:41:25;102643.53;;;23.34;61.62
64886;BME280;51514;52.206;5.114;2023-09-30T12:43:50;102642.69;;;23.34;61.44
64886;BME280;51514;52.206;5.114;2023-09-30T12:46:16;102646.69;;;23.31;61.68
64886;BME280;51514;52.206;5.114;2023-09-30T12:48:43;102646.00;;;23.29;61.29
64886;BME280;51514;52.206;5.114;2023-09-30T12:51:09;102645.16;;;23.28;61.50
64886;BME280;51514;52.206;5.114;2023-09-30T12:53:35;102641.56;;;23.28;61.33
64886;BME280;51514;52.206;5.114;2023-09-30T12:56:01;102642.59;;;23.27;61.27
64886;BME280;51514;52.206;5.114;2023-09-30T12:58:26;102639.00;;;23.26;61.03
64886;BME280;51514;52.206;5.114;2023-09-30T13:00:55;102638.16;;;23.26;61.26
64886;BME280;51514;52.206;5.114;2023-09-30T13:03:21;102642.59;;;23.27;61.02
64886;BME280;51514;52.206;5.114;2023-09-30T13:05:46;102644.31;;;23.28;61.06
64886;BME280;51514;52.206;5.114;2023-09-30T13:08:12;102647.06;;;23.28;60.98
64886;BME280;51514;52.206;5.114;2023-09-30T13:10:37;102637.75;;;23.29;60.90
64886;BME280;51514;52.206;5.114;2023-09-30T13:13:03;102624.84;;;23.29;60.74
64886;BME280;51514;52.206;5.114;2023-09-30T13:15:29;102614.88;;;23.28;60.62